Time;durP1;ratioP1;P1;durP2;ratioP2;P2;SDS_P1;SDS_P2;PMS_P1;PMS_P2;Temp;Humidity;BMP_temperature;BMP_pressure;BME280_temperature;BME280_humidity;BME280_pressure;Samples;Min_cycle;Max_cycle;Signal;HPM_P1;HPM_P2
2023/10/21 00:00:04;;;;;;;1.30;0.93;;;14.00;99.90;;;14.04;100.00;97884.81;5197751;28;20053;-49
2023/10/21 00:02:45;;;;;;;1.25;0.93;;;14.00;99.90;;;14.05;100.00;97880.41;5194842;28;20064;-48
2023/10/21 00:05:18;;;;;;;0.75;0.73;;;14.00;99.90;;;14.07;100.00;97881.22;5198941;28;20045;-48
2023/10/21 00:07:50;;;;;;;1.45;0.93;;;14.00;99.90;;;14.08;100.00;97882.94;5199325;28;20084;-48
2023/10/21 00:10:23;;;;;;;0.75;0.75;;;14.00;99.90;;;14.09;100.00;97884.69;5201127;28;20054;-48
2023/10/21 00:12:55;;;;;;;1.27;0.82;;;14.10;99.90;;;14.11;100.00;97888.13;5200766;28;20054;-48
2023/10/21 00:15:28;;;;;;;1.35;0.82;;;14.10;99.90;;;14.11;100.00;97891.59;5200169;28;20042;-48
2023/10/21 00:18:02;;;;;;;0.70;0.70;;;14.10;99.90;;;14.13;100.00;97899.41;5199183;28;20054;-48
2023/10/21 00:20:34;;;;;;;0.70;0.70;;;14.10;99.90;;;14.13;100.00;97902.03;5189209;28;20045;-48
2023/10/21 00:23:06;;;;;;;0.70;0.70;;;14.10;99.90;;;14.14;100.00;97908.97;5200612;28;20420;-48
2023/10/21 00:25:39;;;;;;;0.70;0.70;;;14.10;99.90;;;14.13;100.00;97902.03;5199984;28;20044;-48
2023/10/21 00:28:11;;;;;;;0.95;0.90;;;14.10;99.90;;;14.13;100.00;97902.03;5191749;28;20053;-48
2023/10/21 00:30:45;;;;;;;1.05;0.95;;;14.10;99.90;;;14.10;100.00;97905.59;5198092;28;20053;-48
2023/10/21 00:33:19;;;;;;;0.90;0.80;;;14.10;99.90;;;14.11;100.00;97903.84;5197557;28;20241;-48
2023/10/21 00:35:54;;;;;;;1.15;0.65;;;14.10;99.90;;;14.10;100.00;97905.59;5194302;28;20041;-48
2023/10/21 00:38:27;;;;;;;1.33;0.70;;;14.10;99.90;;;14.09;100.00;97906.50;5196409;28;20352;-48
2023/10/21 00:40:59;;;;;;;0.95;0.80;;;14.00;99.90;;;14.10;100.00;97904.75;5198125;28;20528;-48
2023/10/21 00:43:34;;;;;;;0.98;0.73;;;14.00;99.90;;;14.10;100.00;97912.59;5193288;28;20050;-48
2023/10/21 00:46:11;;;;;;;0.70;0.70;;;14.00;99.90;;;14.08;100.00;97914.38;5203302;28;20052;-48
2023/10/21 00:48:46;;;;;;;0.95;0.80;;;14.00;99.90;;;14.10;100.00;97915.22;5185275;28;20068;-48
2023/10/21 00:51:20;;;;;;;1.05;0.82;;;14.00;99.90;;;14.11;100.00;97914.31;5193619;28;20037;-48
2023/10/21 00:53:54;;;;;;;0.90;0.90;;;14.00;99.90;;;14.12;100.00;97916.03;5196567;28;20045;-49
2023/10/21 00:56:26;;;;;;;1.90;0.90;;;14.00;99.90;;;14.12;100.00;97911.66;5197468;28;20050;-48
2023/10/21 00:58:58;;;;;;;1.33;1.00;;;14.10;99.90;;;14.12;100.00;97918.66;5200035;28;20041;-48
2023/10/21 01:01:30;;;;;;;0.80;0.80;;;14.10;99.90;;;14.11;100.00;97916.94;5196122;28;20061;-48
2023/10/21 01:04:05;;;;;;;0.77;0.73;;;14.10;99.90;;;14.11;100.00;97916.94;5195526;28;20050;-48
2023/10/21 01:06:37;;;;;;;;;;;14.00;99.90;;;14.09;100.00;97926.59;5199956;28;20064;-48
2023/10/21 01:09:10;;;;;;;1.60;1.02;;;14.00;99.90;;;14.08;100.00;97923.13;5199932;28;19921;-48
2023/10/21 01:11:45;;;;;;;0.80;0.80;;;14.10;99.90;;;14.08;100.00;97923.13;5190580;28;20139;-49
2023/10/21 01:14:18;;;;;;;1.80;0.85;;;14.10;99.90;;;14.08;100.00;97924.84;5202790;28;20049;-48
2023/10/21 01:16:50;;;;;;;0.98;0.98;;;14.00;99.90;;;14.09;100.00;97926.59;5187373;28;20948;-48
2023/10/21 01:19:24;;;;;;;0.85;0.80;;;14.00;99.90;;;14.08;100.00;97927.47;5195624;28;20054;-48
2023/10/21 01:21:56;;;;;;;2.17;0.88;;;14.10;99.90;;;14.07;100.00;97934.47;5187924;28;20041;-48
2023/10/21 01:24:30;;;;;;;1.15;0.82;;;14.00;99.90;;;14.07;100.00;97933.59;5199544;28;20050;-48
2023/10/21 01:27:03;;;;;;;1.00;0.73;;;14.00;99.90;;;14.08;100.00;97930.09;5194554;28;20053;-48
2023/10/21 01:29:37;;;;;;;0.93;0.82;;;14.00;99.90;;;14.08;100.00;97933.59;5197483;28;20050;-48
2023/10/21 01:32:09;;;;;;;1.15;0.80;;;14.00;99.90;;;14.10;100.00;97933.53;5200181;28;20092;-49
2023/10/21 01:34:41;;;;;;;0.80;0.80;;;14.10;99.90;;;14.11;100.00;97940.50;5202085;28;20504;-48
2023/10/21 01:37:14;;;;;;;1.00;0.70;;;14.00;99.90;;;14.12;100.00;97948.31;5198763;28;20513;-48
2023/10/21 01:39:47;;;;;;;1.05;0.93;;;14.10;99.90;;;14.12;100.00;97950.06;5205456;28;20049;-48
2023/10/21 01:42:20;;;;;;;0.98;0.73;;;14.10;99.90;;;14.10;100.00;97951.88;5202095;28;20501;-47
2023/10/21 01:44:55;;;;;;;1.55;1.10;;;14.10;99.90;;;14.10;100.00;97951.88;5206049;28;20524;-48
2023/10/21 01:47:29;;;;;;;0.80;0.80;;;14.00;99.90;;;14.11;100.00;97964.06;5199629;28;20052;-48
2023/10/21 01:50:08;;;;;;;1.20;0.90;;;14.00;99.90;;;14.11;100.00;97958.84;5202921;28;20122;-48
2023/10/21 01:52:41;;;;;;;0.60;0.60;;;14.00;99.90;;;14.12;100.00;97961.41;5200655;28;20061;-49
2023/10/21 01:55:16;;;;;;;1.30;0.80;;;14.00;99.90;;;14.14;100.00;97961.38;5199177;28;20468;-48
2023/10/21 01:57:52;;;;;;;0.90;0.90;;;14.10;99.90;;;14.15;100.00;97959.59;5199549;28;20073;-47
2023/10/21 02:00:25;;;;;;;0.70;0.70;;;14.00;99.90;;;14.14;100.00;97971.84;5194092;28;20046;-47
2023/10/21 02:02:58;;;;;;;1.08;0.90;;;14.10;99.90;;;14.15;100.00;97970.09;5202277;28;20573;-48
2023/10/21 02:05:30;;;;;;;1.15;0.65;;;14.10;99.90;;;14.15;100.00;97977.94;5201508;28;20053;-48
2023/10/21 02:08:04;;;;;;;0.90;0.90;;;14.10;99.90;;;14.14;100.00;97990.19;5199338;28;20501;-47
2023/10/21 02:10:41;;;;;;;1.20;1.10;;;14.10;99.90;;;14.14;100.00;98003.28;5200372;28;20144;-48
2023/10/21 02:13:13;;;;;;;3.08;1.27;;;14.00;99.90;;;14.10;100.00;98012.13;5196280;28;20046;-48
2023/10/21 02:15:46;;;;;;;2.08;1.13;;;14.00;99.90;;;14.06;100.00;98019.19;5206080;28;20049;-49
2023/10/21 02:18:18;;;;;;;1.35;1.10;;;14.00;99.90;;;14.06;100.00;98026.16;5188973;28;20060;-48
2023/10/21 02:20:51;;;;;;;2.53;1.23;;;14.00;99.90;;;14.06;100.00;98020.94;5201134;28;20060;-48
2023/10/21 02:23:23;;;;;;;1.45;1.10;;;14.00;99.90;;;14.07;100.00;98027.88;5199012;28;20073;-48
2023/10/21 02:26:02;;;;;;;1.75;1.13;;;14.00;99.90;;;14.10;100.00;98038.31;5198788;28;20045;-48
2023/10/21 02:28:34;;;;;;;1.58;1.20;;;14.00;99.90;;;14.10;100.00;98043.56;5200243;28;20052;-48
2023/10/21 02:31:07;;;;;;;1.20;0.85;;;14.00;99.90;;;14.10;100.00;98051.41;5202764;28;20124;-48
2023/10/21 02:33:42;;;;;;;1.00;0.90;;;14.00;99.90;;;14.11;100.00;98047.88;5198579;28;20060;-48
2023/10/21 02:36:14;;;;;;;0.77;0.77;;;14.00;99.90;;;14.13;100.00;98069.66;5195780;28;20037;-49
2023/10/21 02:38:47;;;;;;;0.85;0.73;;;14.00;99.90;;;14.14;100.00;98060.91;5194454;28;20136;-48
2023/10/21 02:41:21;;;;;;;1.85;1.00;;;14.10;99.90;;;14.15;100.00;98073.13;5205320;28;20510;-48
2023/10/21 02:43:53;;;;;;;1.05;0.85;;;14.10;99.90;;;14.17;100.00;98081.81;5207902;28;20057;-48
2023/10/21 02:46:26;;;;;;;0.90;0.70;;;14.10;99.90;;;14.17;100.00;98089.66;5192750;28;20497;-48
2023/10/21 02:48:59;;;;;;;1.95;1.00;;;14.10;99.90;;;14.18;100.00;98095.75;5205464;28;20060;-48
2023/10/21 02:51:32;;;;;;;1.17;0.90;;;14.10;99.90;;;14.17;100.00;98101.91;5206600;28;20083;-48
2023/10/21 02:54:04;;;;;;;1.00;0.93;;;14.10;99.90;;;14.16;100.00;98106.28;5206275;28;20045;-48
2023/10/21 02:56:41;;;;;;;0.90;0.73;;;14.10;99.90;;;14.19;100.00;98115.81;5196327;28;20125;-48
2023/10/21 02:59:13;;;;;;;1.00;0.80;;;14.10;99.90;;;14.19;100.00;98131.53;5193437;28;20076;-48
2023/10/21 03:01:47;;;;;;;1.15;1.00;;;14.10;99.90;;;14.20;100.00;98128.00;5200056;28;20406;-48
2023/10/21 03:04:20;;;;;;;1.55;0.85;;;14.10;99.90;;;14.19;100.00;98127.16;5196131;28;20516;-48
2023/10/21 03:06:52;;;;;;;0.95;0.95;;;14.10;99.90;;;14.20;100.00;98144.59;5199427;28;20065;-48
2023/10/21 03:09:26;;;;;;;0.80;0.80;;;14.10;99.90;;;14.21;100.00;98148.06;5201713;28;20521;-48
2023/10/21 03:12:04;;;;;;;1.08;0.93;;;14.10;99.90;;;14.22;100.00;98155.91;5201843;28;20057;-48
2023/10/21 03:14:38;;;;;;;1.45;1.02;;;14.10;99.90;;;14.23;100.00;98162.00;5201982;28;20052;-48
2023/10/21 03:17:10;;;;;;;1.08;0.80;;;14.10;99.90;;;14.23;100.00;98168.13;5213402;28;20432;-48
2023/10/21 03:19:43;;;;;;;1.67;1.10;;;14.10;99.90;;;14.24;100.00;98177.69;5200063;28;20060;-48
2023/10/21 03:22:15;;;;;;;0.82;0.82;;;14.10;99.90;;;14.25;100.00;98174.16;5203853;28;20558;-48
2023/10/21 03:24:48;;;;;;;0.85;0.85;;;14.20;99.90;;;14.27;100.00;98187.22;5204317;28;20053;-48
2023/10/21 03:27:22;;;;;;;1.95;0.93;;;14.10;99.90;;;14.26;100.00;98194.22;5196935;28;20619;-49
2023/10/21 03:29:54;;;;;;;1.20;0.95;;;14.10;99.90;;;14.26;100.00;98196.84;5194993;28;20049;-48
2023/10/21 03:32:26;;;;;;;1.15;1.08;;;14.20;99.90;;;14.27;100.00;98198.56;5205195;28;20095;-49
2023/10/21 03:34:59;;;;;;;1.55;1.00;;;14.20;99.90;;;14.28;100.00;98205.56;5199655;28;20048;-49
2023/10/21 03:37:32;;;;;;;1.00;0.90;;;14.20;99.90;;;14.27;100.00;98211.66;5208097;28;20045;-48
2023/10/21 03:40:10;;;;;;;1.50;0.93;;;14.20;99.90;;;14.28;100.00;98216.03;5205410;28;20512;-48
2023/10/21 03:42:44;;;;;;;2.22;1.00;;;14.20;99.90;;;14.27;100.00;98214.28;5193310;28;20124;-48
2023/10/21 03:45:16;;;;;;;1.10;1.00;;;14.20;99.90;;;14.28;100.00;98221.28;5193433;28;20052;-48
2023/10/21 03:47:49;;;;;;;1.00;0.90;;;14.20;99.90;;;14.28;100.00;98220.38;5200436;28;20049;-48
2023/10/21 03:50:21;;;;;;;0.88;0.80;;;14.20;99.90;;;14.27;100.00;98230.00;5205880;28;20470;-48
2023/10/21 03:52:53;;;;;;;1.45;0.90;;;14.20;99.90;;;14.28;100.00;98242.25;5199175;28;20053;-48
2023/10/21 03:55:26;;;;;;;1.08;0.90;;;14.20;99.90;;;14.28;100.00;98238.72;5198621;28;20420;-48
2023/10/21 03:58:03;;;;;;;1.80;0.90;;;14.20;99.90;;;14.29;100.00;98264.94;5200776;28;20050;-48
2023/10/21 04:00:35;;;;;;;1.25;1.02;;;14.20;99.90;;;14.28;100.00;98263.22;5207065;28;20081;-48
2023/10/21 04:03:08;;;;;;;0.75;0.75;;;14.20;99.90;;;14.29;100.00;98266.69;5205263;28;20049;-49
2023/10/21 04:05:42;;;;;;;1.20;1.10;;;14.20;99.90;;;14.29;100.00;98270.16;5194989;28;20058;-48
2023/10/21 04:08:14;;;;;;;0.73;0.73;;;14.20;99.90;;;14.30;100.00;98277.13;5196610;28;20068;-48
2023/10/21 04:10:47;;;;;;;0.95;0.85;;;14.20;99.90;;;14.30;100.00;98276.28;5198388;28;20046;-48
2023/10/21 04:13:20;;;;;;;1.70;1.08;;;14.20;99.90;;;14.27;100.00;98282.41;5200840;28;20042;-48
2023/10/21 04:15:53;;;;;;;1.58;0.90;;;14.20;99.90;;;14.26;100.00;98279.81;5198127;28;20054;-48
2023/10/21 04:18:25;;;;;;;1.10;1.00;;;14.20;99.90;;;14.21;100.00;98273.81;5198190;28;20048;-48
2023/10/21 04:20:58;;;;;;;1.13;1.00;;;14.20;99.90;;;14.19;100.00;98284.31;5198354;28;20045;-48
2023/10/21 04:23:30;;;;;;;1.02;0.90;;;14.20;99.90;;;14.18;100.00;98282.59;5199108;28;20069;-48
2023/10/21 04:26:05;;;;;;;1.52;1.02;;;14.20;99.90;;;14.20;100.00;98304.38;5198372;28;20120;-48
2023/10/21 04:28:39;;;;;;;1.27;1.17;;;14.10;99.90;;;14.19;100.00;98297.44;5204620;28;20147;-48
2023/10/21 04:31:11;;;;;;;1.20;0.85;;;14.10;99.90;;;14.22;100.00;98313.09;5196906;28;20045;-49
2023/10/21 04:33:43;;;;;;;1.00;0.95;;;14.10;99.90;;;14.23;100.00;98316.59;5194880;28;20057;-48
2023/10/21 04:36:19;;;;;;;2.00;1.05;;;14.20;99.90;;;14.21;100.00;98329.69;5200219;28;20045;-48
2023/10/21 04:38:51;;;;;;;1.65;1.13;;;14.10;99.90;;;14.23;100.00;98332.31;5206257;28;20053;-49
2023/10/21 04:41:23;;;;;;;0.93;0.88;;;14.10;99.90;;;14.22;100.00;98334.06;5202794;28;20057;-49
2023/10/21 04:43:57;;;;;;;1.27;1.15;;;14.20;99.90;;;14.22;100.00;98341.91;5212306;28;20045;-48
2023/10/21 04:46:31;;;;;;;1.65;1.40;;;14.20;99.90;;;14.22;100.00;98354.16;5193695;28;20056;-48
2023/10/21 04:49:03;;;;;;;1.40;1.30;;;14.20;99.90;;;14.21;100.00;98349.78;5204216;28;20055;-48
2023/10/21 04:51:36;;;;;;;1.60;1.02;;;14.20;99.90;;;14.18;100.00;98361.19;5203639;28;20106;-48
2023/10/21 04:54:08;;;;;;;1.40;1.20;;;14.10;99.90;;;14.20;100.00;98363.78;5200071;28;20052;-48
2023/10/21 04:56:41;;;;;;;1.02;0.85;;;14.20;99.90;;;14.20;100.00;98369.03;5195792;28;20050;-48
2023/10/21 04:59:15;;;;;;;1.63;1.10;;;14.20;99.90;;;14.19;100.00;98365.53;5197623;28;20068;-48
2023/10/21 05:01:47;;;;;;;2.55;1.30;;;14.20;99.90;;;14.19;100.00;98368.16;5197407;28;20037;-48
2023/10/21 05:04:19;;;;;;;1.35;1.10;;;14.10;99.90;;;14.20;100.00;98380.38;5193119;28;20054;-48
2023/10/21 05:06:52;;;;;;;1.10;1.00;;;14.20;99.90;;;14.20;100.00;98380.38;5195417;28;20053;-48
2023/10/21 05:09:24;;;;;;;1.75;1.08;;;14.20;99.90;;;14.21;100.00;98382.09;5199678;28;20045;-49
2023/10/21 05:11:57;;;;;;;1.23;0.93;;;14.20;99.90;;;14.23;100.00;98387.31;5195928;28;20045;-48
2023/10/21 05:14:31;;;;;;;1.27;0.93;;;14.20;99.90;;;14.22;100.00;98394.31;5198580;28;20049;-48
2023/10/21 05:17:03;;;;;;;2.60;1.00;;;14.10;99.90;;;14.22;100.00;98399.56;5198335;28;20068;-48
2023/10/21 05:19:36;;;;;;;1.42;1.20;;;14.20;99.90;;;14.19;100.00;98398.72;5200370;28;20058;-48
2023/10/21 05:22:08;;;;;;;0.98;0.88;;;14.10;99.90;;;14.17;100.00;98406.63;5198390;28;20072;-48
2023/10/21 05:24:40;;;;;;;1.63;1.30;;;14.10;99.90;;;14.15;100.00;98413.66;5191713;28;20057;-48
2023/10/21 05:27:13;;;;;;;2.08;1.20;;;14.10;99.90;;;14.13;100.00;98404.94;5198018;28;20049;-48
2023/10/21 05:29:46;;;;;;;1.52;1.10;;;14.10;99.90;;;14.12;100.00;98418.94;5193144;28;20060;-48
2023/10/21 05:32:19;;;;;;;1.10;0.93;;;14.10;99.90;;;14.11;100.00;98427.69;5201925;28;20045;-48
2023/10/21 05:34:51;;;;;;;1.75;0.82;;;14.10;99.90;;;14.10;100.00;98425.97;5193414;28;20069;-49
2023/10/21 05:37:24;;;;;;;1.50;1.40;;;14.10;99.90;;;14.11;100.00;98432.94;5195507;28;20185;-48
2023/10/21 05:39:56;;;;;;;1.33;0.90;;;14.10;99.90;;;14.10;100.00;98437.31;5197364;28;20053;-48
2023/10/21 05:42:28;;;;;;;3.20;1.63;;;14.10;99.90;;;14.10;100.00;98441.69;5201054;28;20044;-49
2023/10/21 05:45:02;;;;;;;2.63;1.50;;;14.10;99.90;;;14.09;100.00;98445.19;5203390;28;20061;-49
2023/10/21 05:47:36;;;;;;;2.13;1.63;;;14.10;99.90;;;14.11;100.00;98453.88;5202038;28;20042;-48
2023/10/21 05:50:09;;;;;;;4.65;2.53;;;14.10;99.90;;;14.13;100.00;98462.56;5198521;28;20065;-48
2023/10/21 05:52:41;;;;;;;9.73;5.07;;;14.10;99.90;;;14.15;100.00;98454.69;5202158;28;20062;-48
2023/10/21 05:55:14;;;;;;;8.82;5.00;;;14.10;99.90;;;14.13;100.00;98470.44;5193485;28;20652;-48
2023/10/21 05:57:46;;;;;;;7.43;4.05;;;14.10;99.90;;;14.13;100.00;98473.91;5198270;28;20528;-48
2023/10/21 06:00:20;;;;;;;4.80;2.83;;;14.10;99.90;;;14.12;100.00;98476.56;5196522;28;20049;-49
2023/10/21 06:02:53;;;;;;;3.67;1.83;;;14.10;99.90;;;14.09;100.00;98489.72;5197014;28;20053;-48
2023/10/21 06:05:25;;;;;;;2.95;1.60;;;14.10;99.90;;;14.11;100.00;98495.78;5193169;28;20042;-48
2023/10/21 06:07:57;;;;;;;2.05;1.40;;;14.10;99.90;;;14.11;100.00;98495.78;5202963;28;20440;-48
2023/10/21 06:10:30;;;;;;;1.80;1.20;;;14.10;99.90;;;14.13;100.00;98501.88;5201012;28;20088;-48
2023/10/21 06:13:02;;;;;;;2.47;1.08;;;14.10;99.90;;;14.15;100.00;98513.22;5196645;28;20056;-48
2023/10/21 06:15:38;;;;;;;1.42;0.80;;;14.10;99.90;;;14.18;100.00;98525.38;5201303;28;20049;-48
2023/10/21 06:18:10;;;;;;;1.45;1.00;;;14.10;99.90;;;14.20;100.00;98540.19;5202559;28;20053;-48
2023/10/21 06:20:47;;;;;;;1.92;0.98;;;14.10;99.90;;;14.24;100.00;98546.25;5198917;28;20053;-48
2023/10/21 06:23:19;;;;;;;2.05;1.15;;;14.20;99.90;;;14.26;100.00;98547.94;5193028;28;20576;-48
2023/10/21 06:25:52;;;;;;;1.08;0.90;;;14.20;99.90;;;14.27;100.00;98562.75;5196518;28;20390;-48
2023/10/21 06:28:24;;;;;;;2.17;1.20;;;14.20;99.90;;;14.27;100.00;98565.38;5200351;28;20405;-48
2023/10/21 06:31:02;;;;;;;1.38;1.05;;;14.30;99.90;;;14.31;100.00;98580.19;5197188;28;20046;-48
2023/10/21 06:33:35;;;;;;;2.75;0.98;;;14.30;99.90;;;14.33;100.00;98591.50;5205160;28;20053;-48
2023/10/21 06:36:10;;;;;;;2.85;1.30;;;14.30;99.90;;;14.36;100.00;98596.72;5202621;28;20053;-48
2023/10/21 06:38:42;;;;;;;;;;;14.30;99.90;;;14.38;100.00;98607.16;5201975;28;20049;-48
2023/10/21 06:41:14;;;;;;;1.58;0.73;;;14.30;99.90;;;14.35;100.00;98608.09;5198648;28;20297;-48
2023/10/21 06:43:47;;;;;;;1.63;1.02;;;14.30;99.90;;;14.34;100.00;98621.19;5199905;28;20049;-48
2023/10/21 06:46:24;;;;;;;1.15;0.90;;;14.30;99.90;;;14.35;100.00;98626.44;5199308;28;20512;-48
2023/10/21 06:48:56;;;;;;;0.63;0.52;;;14.30;99.90;;;14.37;100.00;98636.88;5200177;28;20060;-48
2023/10/21 06:51:28;;;;;;;1.92;0.80;;;14.30;99.90;;;14.39;100.00;98638.56;5197507;28;20052;-48
2023/10/21 06:54:01;;;;;;;0.88;0.80;;;14.30;99.90;;;14.43;100.00;98649.03;5204874;28;20061;-48
2023/10/21 06:56:35;;;;;;;1.00;0.63;;;14.40;99.90;;;14.46;100.00;98656.84;5199835;28;20072;-47
2023/10/21 06:59:07;;;;;;;0.80;0.63;;;14.40;99.90;;;14.46;100.00;98660.34;5200394;28;20049;-47
2023/10/21 07:01:41;;;;;;;2.63;0.88;;;14.40;99.90;;;14.47;100.00;98661.22;5202484;28;20053;-47
2023/10/21 07:04:14;;;;;;;2.35;0.90;;;14.40;99.90;;;14.49;100.00;98670.81;5199060;28;20069;-47
2023/10/21 07:06:48;;;;;;;1.33;0.73;;;14.40;99.90;;;14.51;100.00;98678.66;5205053;28;20115;-47
2023/10/21 07:09:20;;;;;;;1.15;0.63;;;14.40;99.90;;;14.52;100.00;98690.84;5198550;28;20048;-47
2023/10/21 07:11:52;;;;;;;0.68;0.68;;;14.40;99.90;;;14.54;100.00;98695.22;5222382;28;20052;-47
2023/10/21 07:14:25;;;;;;;0.60;0.60;;;14.50;99.90;;;14.55;100.00;98696.06;5221944;28;20455;-48
2023/10/21 07:17:00;;;;;;;0.52;0.47;;;14.50;99.90;;;14.56;100.00;98705.66;5223374;28;20045;-47
2023/10/21 07:19:32;;;;;;;0.65;0.65;;;14.50;99.90;;;14.55;100.00;98711.81;5219181;28;20063;-47
2023/10/21 07:22:06;;;;;;;0.60;0.60;;;14.50;99.90;;;14.57;100.00;98720.50;5213903;28;20055;-48
2023/10/21 07:24:38;;;;;;;0.98;0.80;;;14.50;99.90;;;14.58;100.00;98722.22;5223102;28;20057;-47
2023/10/21 07:27:11;;;;;;;1.17;0.70;;;14.50;99.90;;;14.61;100.00;98737.94;5222657;28;20504;-46
2023/10/21 07:29:43;;;;;;;1.92;0.80;;;14.50;99.90;;;14.85;100.00;98742.78;5218301;28;20112;-46
2023/10/21 07:32:17;;;;;;;0.63;0.55;;;14.70;99.90;;;15.14;100.00;98757.25;5218022;28;20423;-48
2023/10/21 07:34:49;;;;;;;1.83;0.70;;;14.90;99.90;;;15.22;100.00;98763.22;5221286;28;20053;-47
2023/10/21 07:37:21;;;;;;;0.85;0.50;;;15.10;99.90;;;15.22;100.00;98759.75;5227342;28;20048;-48
2023/10/21 07:39:54;;;;;;;1.90;0.63;;;15.10;99.90;;;15.20;100.00;98759.78;5225133;28;20049;-47
2023/10/21 07:42:26;;;;;;;1.05;0.50;;;15.10;99.90;;;15.25;100.00;98762.28;5219827;28;20052;-48
2023/10/21 07:44:59;;;;;;;1.15;0.70;;;15.10;99.90;;;15.35;100.00;98769.16;5213989;28;20056;-48
2023/10/21 07:47:33;;;;;;;0.60;0.52;;;15.20;99.90;;;15.42;100.00;98784.75;5216844;28;20539;-47
2023/10/21 07:50:07;;;;;;;0.73;0.20;;;15.20;99.90;;;15.62;100.00;98801.97;5222370;28;20207;-47
2023/10/21 07:52:43;;;;;;;0.50;0.50;;;15.40;99.90;;;15.86;100.00;98809.44;5221084;28;20320;-47
2023/10/21 07:55:15;;;;;;;1.55;0.30;;;15.50;99.90;;;16.09;100.00;98816.00;5207595;28;20139;-48
2023/10/21 07:57:48;;;;;;;0.30;0.30;;;15.70;99.90;;;16.17;100.00;98806.22;5218580;28;20051;-48
2023/10/21 08:00:20;;;;;;;0.28;0.20;;;15.80;99.90;;;16.07;100.00;98816.03;5220820;28;20041;-48
2023/10/21 08:02:54;;;;;;;0.20;0.20;;;15.70;99.90;;;15.91;100.00;98820.72;5219323;28;20148;-48
2023/10/21 08:05:27;;;;;;;0.13;0.13;;;15.60;99.90;;;15.80;100.00;98824.44;5218719;28;20045;-48
2023/10/21 08:07:59;;;;;;;0.30;0.30;;;15.60;99.90;;;15.66;100.00;98838.66;5229478;28;20408;-48
2023/10/21 08:10:32;;;;;;;1.10;0.20;;;15.50;99.90;;;15.59;100.00;98846.66;5216691;28;20059;-48
2023/10/21 08:13:04;;;;;;;1.02;0.30;;;15.40;99.90;;;15.58;100.00;98858.00;5220710;28;20049;-45
2023/10/21 08:15:36;;;;;;;0.60;0.28;;;15.40;99.90;;;15.54;100.00;98864.22;5218977;28;20049;-47
2023/10/21 08:18:10;;;;;;;0.30;0.30;;;15.40;99.90;;;15.50;100.00;98867.78;5224100;28;20045;-47
2023/10/21 08:20:43;;;;;;;0.25;0.25;;;15.40;99.90;;;15.45;100.00;98871.38;5216193;28;20057;-47
2023/10/21 08:23:16;;;;;;;0.88;0.52;;;15.30;99.90;;;15.46;100.00;98872.22;5222216;28;20751;-47
2023/10/21 08:25:48;;;;;;;0.22;0.20;;;15.30;99.90;;;15.71;100.00;98876.25;5220133;28;20041;-47
2023/10/21 08:28:21;;;;;;;0.20;0.20;;;15.40;99.90;;;16.69;100.00;98876.16;5217833;28;20049;-48
2023/10/21 08:30:53;;;;;;;0.22;0.22;;;16.00;99.90;;;17.75;100.00;98893.19;5216590;28;20697;-48
2023/10/21 08:33:27;;;;;;;0.75;0.10;;;16.80;99.90;;;18.51;100.00;98890.31;5221089;28;20052;-47
2023/10/21 08:35:59;;;;;;;0.38;0.38;;;17.50;99.90;;;19.05;100.00;98887.94;5219838;28;20504;-46
2023/10/21 08:38:35;;;;;;;0.10;0.10;;;18.20;99.90;;;19.28;100.00;98891.63;5216511;28;20045;-47
2023/10/21 08:41:11;;;;;;;0.90;0.30;;;18.60;99.90;;;19.36;100.00;98886.97;5215447;28;20747;-47
2023/10/21 08:43:47;;;;;;;0.22;0.17;;;18.80;99.90;;;19.39;100.00;98902.75;5214598;28;20072;-48
2023/10/21 08:46:20;;;;;;;0.20;0.20;;;19.00;99.90;;;19.33;100.00;98900.28;5226786;28;20052;-46
2023/10/21 08:48:54;;;;;;;0.35;0.20;;;19.00;99.90;;;19.19;100.00;98913.91;5223892;28;20044;-47
2023/10/21 08:51:28;;;;;;;0.20;0.20;;;18.90;99.90;;;18.94;100.00;98911.13;5207891;28;20512;-47
2023/10/21 08:54:03;;;;;;;0.32;0.13;;;18.80;99.90;;;18.65;100.00;98920.72;5223906;28;20102;-48
2023/10/21 08:56:38;;;;;;;0.82;0.20;;;18.50;99.90;;;18.36;100.00;98928.53;5214418;28;20052;-47
2023/10/21 08:59:10;;;;;;;0.65;0.40;;;18.20;99.90;;;18.08;100.00;98926.59;5220287;28;20444;-48
2023/10/21 09:01:45;;;;;;;0.75;0.50;;;18.00;99.90;;;17.76;100.00;98926.53;5218844;28;20059;-47
2023/10/21 09:04:22;;;;;;;0.60;0.30;;;17.70;99.90;;;17.52;100.00;98939.31;5218983;28;20053;-47
2023/10/21 09:06:59;;;;;;;0.47;0.28;;;17.40;99.90;;;17.32;100.00;98936.28;5230964;28;20140;-47
2023/10/21 09:09:31;;;;;;;0.63;0.22;;;17.20;99.90;;;17.16;100.00;98942.78;5226974;28;20053;-47
2023/10/21 09:12:09;;;;;;;1.30;0.30;;;17.00;99.90;;;17.11;100.00;98942.88;5219175;28;20045;-47
2023/10/21 09:14:55;;;;;;;1.80;0.40;;;16.90;99.90;;;17.28;100.00;98946.03;5217415;28;20049;-47
2023/10/21 09:17:36;;;;;;;0.63;0.22;;;16.90;99.90;;;17.48;100.00;98957.91;5217829;28;20049;-47
2023/10/21 09:20:11;;;;;;;;;;;17.00;99.90;;;17.67;100.00;98953.03;5220517;28;20045;-47
2023/10/21 09:22:51;;;;;;;0.50;0.25;;;17.20;99.90;;;17.86;100.00;98962.28;5204316;28;19931;-47
2023/10/21 09:25:24;;;;;;;2.40;0.40;;;17.30;99.90;;;18.05;100.00;98971.47;5216347;28;20057;-46
2023/10/21 09:27:57;;;;;;;1.33;0.25;;;17.50;99.90;;;18.24;100.00;98971.91;5214346;28;20056;-47
2023/10/21 09:30:30;;;;;;;0.98;0.25;;;17.70;99.90;;;18.37;100.00;98965.41;5219703;28;20424;-46
2023/10/21 09:33:04;;;;;;;0.68;0.25;;;17.80;99.90;;;18.59;100.00;98967.50;5225551;28;20493;-48
2023/10/21 09:35:38;;;;;;;0.63;0.30;;;18.00;99.90;;;18.74;100.00;98977.66;5220336;28;20360;-46
2023/10/21 09:38:18;;;;;;;3.13;0.60;;;18.20;99.90;;;18.91;100.00;98993.94;5221226;28;20546;-46
2023/10/21 09:40:51;;;;;;;0.20;0.20;;;18.40;99.90;;;19.13;100.00;98975.69;5214797;28;20068;-46
2023/10/21 09:43:24;;;;;;;1.08;0.30;;;18.60;99.90;;;19.28;100.00;98974.38;5210320;28;20572;-46
2023/10/21 09:46:01;;;;;;;2.50;0.30;;;18.70;99.90;;;19.41;100.00;98981.03;5216485;28;20101;-46
2023/10/21 09:48:41;;;;;;;0.38;0.20;;;18.90;99.90;;;19.55;100.00;98979.75;5217086;28;20072;-46
2023/10/21 09:51:18;;;;;;;0.93;0.40;;;19.00;99.90;;;19.65;100.00;98983.88;5219946;28;20048;-45
2023/10/21 09:53:57;;;;;;;1.65;0.17;;;19.10;99.90;;;19.80;99.78;98983.41;5225002;28;20045;-46
2023/10/21 09:56:32;;;;;;;1.15;0.40;;;19.30;99.90;;;19.94;97.45;98985.59;5225083;28;20045;-47
2023/10/21 09:59:04;;;;;;;;;;;19.40;99.90;;;19.89;96.38;98983.13;5219656;28;20053;-46
2023/10/21 10:01:39;;;;;;;0.47;0.30;;;19.40;99.90;;;19.88;95.57;98991.06;5220908;28;19932;-47
2023/10/21 10:04:14;;;;;;;0.98;0.25;;;19.40;99.90;;;19.91;93.98;98991.00;5231826;28;20407;-47
2023/10/21 10:06:57;;;;;;;1.40;0.28;;;19.40;99.90;;;19.89;93.58;99000.78;5221450;28;20049;-47
2023/10/21 10:09:30;;;;;;;0.85;0.22;;;19.40;99.90;;;19.68;92.31;99011.06;5215066;28;20073;-47
2023/10/21 10:12:10;;;;;;;2.30;0.30;;;19.30;99.70;;;19.38;92.01;99012.84;5223136;28;20041;-48
2023/10/21 10:14:43;;;;;;;0.90;0.30;;;19.10;99.40;;;19.07;93.40;99020.75;5216747;28;20416;-47
2023/10/21 10:17:47;;;;;;;1.25;0.40;;;18.80;99.80;;;18.75;94.97;99023.41;5226036;28;20048;-47
2023/10/21 10:20:23;;;;;;;0.60;0.38;;;18.50;99.90;;;18.49;96.12;99024.91;5219074;28;20040;-48
2023/10/21 10:23:02;;;;;;;1.88;0.32;;;18.30;99.90;;;18.36;97.30;99032.25;5220054;28;20034;-48
2023/10/21 10:25:36;;;;;;;0.38;0.22;;;18.10;99.90;;;18.34;97.21;99020.88;5222838;28;20052;-48
2023/10/21 10:28:10;;;;;;;;;;;18.00;99.90;;;18.52;97.15;99022.19;5224918;28;20065;-48
2023/10/21 10:30:49;;;;;;;1.35;0.30;;;18.10;99.90;;;18.74;96.00;99024.31;5217602;28;19925;-48
2023/10/21 10:33:25;;;;;;;1.27;0.22;;;18.20;99.90;;;18.98;94.17;99024.53;5219272;28;20069;-48
2023/10/21 10:36:00;;;;;;;1.63;0.40;;;18.40;99.90;;;19.12;94.73;99026.78;5218194;28;20049;-48
2023/10/21 10:38:44;;;;;;;1.13;0.20;;;18.60;99.90;;;19.39;95.57;99032.19;5222070;28;20164;-48
2023/10/21 10:41:18;;;;;;;1.15;0.20;;;18.80;99.90;;;19.64;93.60;99030.59;5224365;28;20040;-48